Terminal Aerodrome Forecast
Issued by NWS Wichita, KS

Home | Current Version | Previous Version | Text Only | Print | Product List | Glossary Off
Versions: 1 2 3 4 5 6 7 8 9 10 11 12 13 14 15 16 17 18 19 20

138
FTUS43 KICT 160530
TAFICT
TAF
KICT 160530Z 1606/1706 06007KT 5SM -RA BR OVC003 WS015/12038KT
      TEMPO 1606/1610 2SM RA BR SCT003 OVC005
     FM161000 07007KT 1 1/2SM -DZ BR OVC003
      TEMPO 1610/1614 3/4SM BR OVC002
     FM161400 VRB04KT 1SM -DZ BR OVC003
     FM161600 24009KT P6SM OVC008
     FM162100 29010KT P6SM OVC013
     FM170100 31009KT P6SM OVC011=

USA.gov is the U.S. government's official web portal to all federal, state and local government web resources and services.